Time;durP1;ratioP1;P1;durP2;ratioP2;P2;SDS_P1;SDS_P2;PMS_P1;PMS_P2;Temp;Humidity;BMP_temperature;BMP_pressure;BME280_temperature;BME280_humidity;BME280_pressure;Samples;Min_cycle;Max_cycle;Signal;HPM_P1;HPM_P2
2021/10/31 00:00:23;;;;;;;22.90;10.20;;;19.30;71.80;;;;;;5060242;28;20029;-77
2021/10/31 00:02:49;;;;;;;21.23;9.15;;;19.40;71.80;;;;;;5038131;28;20445;-76
2021/10/31 00:05:15;;;;;;;23.35;10.07;;;19.30;71.70;;;;;;5034616;28;20474;-76
2021/10/31 00:07:40;;;;;;;19.83;9.35;;;19.30;71.70;;;;;;5049407;28;20120;-76
2021/10/31 00:10:06;;;;;;;22.70;8.98;;;19.30;71.70;;;;;;5034295;28;20079;-76
2021/10/31 00:12:32;;;;;;;20.05;9.35;;;19.40;71.70;;;;;;5046324;28;20025;-76
2021/10/31 00:14:58;;;;;;;22.23;9.32;;;19.30;71.60;;;;;;5048406;28;20039;-77
2021/10/31 00:17:23;;;;;;;23.55;9.30;;;19.30;71.70;;;;;;5041271;28;20041;-76
2021/10/31 00:19:49;;;;;;;21.30;9.07;;;19.40;71.70;;;;;;5067966;28;20093;-76
2021/10/31 00:22:15;;;;;;;21.73;9.93;;;19.30;71.60;;;;;;5057184;28;20017;-76
2021/10/31 00:24:40;;;;;;;19.92;9.05;;;19.30;71.60;;;;;;5047561;28;20027;-76
2021/10/31 00:27:06;;;;;;;15.77;8.52;;;19.30;71.70;;;;;;5053066;28;20378;-76
2021/10/31 00:29:32;;;;;;;16.70;8.63;;;19.30;71.60;;;;;;5060466;28;20079;-76
2021/10/31 00:31:57;;;;;;;19.73;9.00;;;19.30;71.60;;;;;;5066133;28;20596;-76
2021/10/31 00:34:23;;;;;;;22.38;9.13;;;19.30;71.60;;;;;;5053367;28;20478;-76
2021/10/31 00:36:48;;;;;;;16.98;8.88;;;19.30;71.60;;;;;;5061198;28;20038;-76
2021/10/31 00:39:14;;;;;;;21.83;9.07;;;19.30;71.60;;;;;;5062509;28;20103;-76
2021/10/31 00:41:40;;;;;;;19.95;9.48;;;19.30;71.60;;;;;;5066435;28;20029;-76
2021/10/31 00:44:06;;;;;;;17.17;8.73;;;19.30;71.60;;;;;;5057730;28;20025;-76
2021/10/31 00:46:31;;;;;;;22.85;8.77;;;19.30;71.60;;;;;;5068419;28;20086;-76
2021/10/31 00:48:57;;;;;;;20.65;8.25;;;19.30;71.60;;;;;;5044935;28;20035;-76
2021/10/31 00:51:25;;;;;;;16.23;7.60;;;19.30;71.60;;;;;;5061573;28;20021;-77
2021/10/31 00:53:51;;;;;;;21.90;8.55;;;19.30;71.60;;;;;;5052198;28;20021;-76
2021/10/31 00:56:17;;;;;;;15.70;7.57;;;19.30;71.60;;;;;;5039965;28;20017;-76
2021/10/31 00:58:42;;;;;;;15.10;8.55;;;19.30;71.60;;;;;;5068335;28;20055;-76
2021/10/31 01:01:08;;;;;;;16.05;7.80;;;19.30;71.60;;;;;;5054994;28;20025;-76
2021/10/31 01:03:34;;;;;;;19.70;8.98;;;19.30;71.60;;;;;;5053405;28;20025;-76
2021/10/31 01:06:32;;;;;;;17.75;8.30;;;19.30;71.60;;;;;;5070824;28;20024;-76
2021/10/31 01:09:19;;;;;;;19.90;8.27;;;19.30;71.50;;;;;;5049364;28;20032;-76
2021/10/31 01:12:13;;;;;;;16.70;8.20;;;19.30;71.60;;;;;;5058647;28;20039;-76
2021/10/31 01:14:48;;;;;;;12.65;7.30;;;19.20;71.60;;;;;;5045518;28;20381;-76
2021/10/31 01:17:28;;;;;;;15.82;7.75;;;19.20;71.60;;;;;;5062560;28;20440;-76
2021/10/31 01:20:09;;;;;;;17.65;7.78;;;19.20;71.60;;;;;;5068547;28;20378;-76
2021/10/31 01:22:59;;;;;;;14.50;7.68;;;19.20;71.60;;;;;;5043056;28;20099;-76
2021/10/31 01:25:40;;;;;;;15.20;7.53;;;19.20;71.60;;;;;;5062637;28;20027;-76
2021/10/31 01:28:22;;;;;;;16.48;8.20;;;19.20;71.70;;;;;;5070475;28;20032;-76
2021/10/31 01:31:09;;;;;;;15.68;7.28;;;19.20;71.80;;;;;;5052688;28;20083;-76
2021/10/31 01:34:04;;;;;;;14.95;7.57;;;19.20;71.60;;;;;;5057267;28;20025;-76
2021/10/31 01:36:41;;;;;;;17.33;8.05;;;19.20;71.70;;;;;;5046394;28;20047;-76
2021/10/31 01:39:46;;;;;;;17.48;7.75;;;19.20;71.80;;;;;;5060641;28;20048;-76
2021/10/31 01:42:37;;;;;;;13.52;7.47;;;19.20;71.60;;;;;;5063197;28;20064;-76
2021/10/31 01:45:36;;;;;;;14.23;7.07;;;19.20;71.80;;;;;;5054170;28;20029;-76
2021/10/31 01:48:07;;;;;;;15.13;7.47;;;19.20;71.70;;;;;;5060372;28;20068;-76
2021/10/31 01:50:41;;;;;;;16.75;7.53;;;19.10;71.80;;;;;;5058587;28;20399;-76
2021/10/31 01:53:19;;;;;;;14.68;7.32;;;19.20;71.80;;;;;;5060034;28;20017;-76
2021/10/31 01:56:03;;;;;;;12.35;6.80;;;19.10;71.70;;;;;;5048173;28;20023;-76
2021/10/31 01:58:37;;;;;;;11.48;6.93;;;19.20;71.70;;;;;;5061395;28;20021;-76
2021/10/31 02:01:03;;;;;;;11.20;6.97;;;19.10;71.70;;;;;;5067984;28;20078;-76
2021/10/31 02:03:30;;;;;;;14.10;6.93;;;19.10;71.90;;;;;;5055719;28;20052;-76
2021/10/31 02:05:55;;;;;;;10.38;6.45;;;19.10;71.70;;;;;;5043354;28;20111;-76
2021/10/31 02:08:21;;;;;;;14.60;7.13;;;19.10;71.80;;;;;;5048182;28;20513;-76
2021/10/31 02:10:48;;;;;;;11.30;6.60;;;19.10;71.70;;;;;;5041884;28;20056;-76
2021/10/31 02:13:14;;;;;;;13.98;7.15;;;19.10;71.70;;;;;;5052970;28;20016;-76
2021/10/31 02:15:41;;;;;;;12.60;7.18;;;19.10;71.70;;;;;;5055627;28;20503;-76
2021/10/31 02:18:07;;;;;;;12.90;7.03;;;19.10;71.70;;;;;;5048701;28;20023;-77
2021/10/31 02:20:32;;;;;;;14.15;7.25;;;19.10;71.70;;;;;;5060301;28;20029;-76
2021/10/31 02:23:02;;;;;;;11.55;6.68;;;19.10;71.80;;;;;;5034510;28;20025;-76
2021/10/31 02:25:28;;;;;;;13.52;7.00;;;19.10;71.70;;;;;;5046465;28;20040;-76
2021/10/31 02:27:53;;;;;;;11.88;6.32;;;19.10;71.70;;;;;;5058845;28;20029;-76
2021/10/31 02:30:20;;;;;;;12.60;7.05;;;19.10;71.80;;;;;;5069084;28;20074;-76
2021/10/31 02:32:45;;;;;;;13.05;6.85;;;19.10;71.80;;;;;;5059641;28;20020;-76
2021/10/31 02:35:12;;;;;;;11.68;6.47;;;19.10;71.80;;;;;;5043505;28;20108;-76
2021/10/31 02:37:38;;;;;;;12.38;7.00;;;19.10;71.70;;;;;;5045309;28;20017;-76
2021/10/31 02:40:05;;;;;;;13.48;6.90;;;19.10;71.80;;;;;;5068344;28;20013;-76
2021/10/31 02:42:31;;;;;;;12.20;6.55;;;19.10;71.80;;;;;;5062235;28;20028;-76
2021/10/31 02:44:56;;;;;;;10.88;6.28;;;19.10;71.80;;;;;;5057416;28;20025;-76
2021/10/31 02:47:43;;;;;;;10.38;6.88;;;19.10;71.80;;;;;;5044649;28;20034;-76
2021/10/31 02:50:15;;;;;;;11.23;6.55;;;19.10;71.70;;;;;;5045819;28;20075;-76
2021/10/31 02:53:18;;;;;;;11.93;5.90;;;19.10;71.90;;;;;;5043477;28;20017;-76
2021/10/31 02:55:58;;;;;;;12.38;5.85;;;19.10;71.80;;;;;;5040046;28;20009;-76
2021/10/31 02:59:06;;;;;;;12.05;6.57;;;19.10;71.90;;;;;;5072693;28;20025;-76
2021/10/31 03:01:31;;;;;;;10.48;6.13;;;19.10;71.80;;;;;;5047087;28;20119;-76
2021/10/31 03:03:57;;;;;;;10.15;5.85;;;19.00;71.90;;;;;;5053198;28;20569;-76
2021/10/31 03:06:22;;;;;;;10.55;5.88;;;19.00;71.90;;;;;;5063873;28;20525;-76
2021/10/31 03:08:48;;;;;;;9.65;6.25;;;19.10;71.90;;;;;;5039186;28;20025;-76
2021/10/31 03:11:14;;;;;;;11.57;6.13;;;19.00;71.90;;;;;;5071555;28;20028;-76
2021/10/31 03:13:40;;;;;;;11.90;5.95;;;19.10;72.00;;;;;;5060172;28;20080;-77
2021/10/31 03:16:06;;;;;;;10.13;6.13;;;19.10;72.00;;;;;;5055271;28;20032;-76
2021/10/31 03:18:32;;;;;;;11.95;5.90;;;19.10;72.00;;;;;;5066684;28;20047;-76
2021/10/31 03:20:58;;;;;;;8.75;5.60;;;19.10;72.00;;;;;;5058497;28;20495;-76
2021/10/31 03:23:23;;;;;;;9.38;5.18;;;19.10;72.00;;;;;;5064157;28;20021;-76
2021/10/31 03:25:49;;;;;;;10.57;5.65;;;19.10;71.90;;;;;;5066539;28;20107;-76
2021/10/31 03:28:15;;;;;;;10.15;5.75;;;19.10;72.00;;;;;;5064270;28;20424;-76
2021/10/31 03:30:40;;;;;;;10.60;5.95;;;19.10;72.00;;;;;;5054761;28;20025;-76
2021/10/31 03:33:06;;;;;;;8.90;5.28;;;19.10;72.00;;;;;;5054569;28;20017;-76
2021/10/31 03:35:32;;;;;;;9.35;5.47;;;19.10;72.00;;;;;;5037718;28;20029;-76
2021/10/31 03:37:57;;;;;;;10.75;6.03;;;19.10;72.00;;;;;;5054725;28;20085;-76
2021/10/31 03:40:23;;;;;;;12.02;6.13;;;19.10;72.00;;;;;;5055491;28;20470;-76
2021/10/31 03:42:49;;;;;;;9.38;5.68;;;19.10;72.00;;;;;;5053740;28;20394;-76
2021/10/31 03:45:14;;;;;;;8.30;5.28;;;19.10;72.10;;;;;;5053661;28;20024;-77
2021/10/31 03:47:46;;;;;;;9.80;5.85;;;19.10;72.00;;;;;;5061959;28;20096;-76
2021/10/31 03:50:12;;;;;;;9.55;5.22;;;19.10;72.10;;;;;;5066469;28;20020;-76
2021/10/31 03:52:37;;;;;;;9.75;5.50;;;19.10;72.10;;;;;;5048971;28;20496;-76
2021/10/31 03:55:03;;;;;;;8.27;4.93;;;19.10;72.10;;;;;;5076158;28;20074;-76
2021/10/31 03:57:29;;;;;;;8.77;5.60;;;19.10;72.10;;;;;;5043569;28;20024;-76
2021/10/31 03:59:55;;;;;;;8.20;5.40;;;19.10;72.10;;;;;;5053129;28;20036;-76
2021/10/31 04:02:21;;;;;;;8.52;5.15;;;19.10;73.20;;;;;;5045213;28;20144;-76
2021/10/31 04:04:47;;;;;;;8.88;5.03;;;19.10;72.20;;;;;;5064070;28;20025;-76
2021/10/31 04:07:12;;;;;;;8.63;5.38;;;19.10;72.20;;;;;;5063058;28;20051;-76
2021/10/31 04:09:38;;;;;;;8.15;5.00;;;19.10;72.20;;;;;;5071611;28;20398;-76
2021/10/31 04:12:04;;;;;;;10.65;5.18;;;19.10;72.20;;;;;;5059685;28;20029;-76
2021/10/31 04:14:30;;;;;;;9.98;5.47;;;19.10;72.20;;;;;;5064834;28;20021;-76
2021/10/31 04:16:55;;;;;;;8.07;5.00;;;19.10;72.20;;;;;;5066696;28;20016;-76
2021/10/31 04:19:21;;;;;;;8.70;5.07;;;19.10;72.20;;;;;;5058024;28;20548;-76
2021/10/31 04:21:47;;;;;;;9.38;5.22;;;19.10;72.20;;;;;;5070565;28;20059;-76
2021/10/31 04:24:12;;;;;;;8.55;4.78;;;19.10;72.20;;;;;;5061959;28;20062;-77
2021/10/31 04:26:38;;;;;;;9.13;5.50;;;19.10;72.20;;;;;;5070528;28;20025;-77
2021/10/31 04:29:04;;;;;;;10.20;4.80;;;19.10;72.20;;;;;;5028278;28;20025;-77
2021/10/31 04:31:29;;;;;;;9.05;5.00;;;19.10;72.30;;;;;;5053945;28;20021;-77
2021/10/31 04:33:55;;;;;;;8.63;5.15;;;19.10;72.20;;;;;;5075136;28;20021;-77
2021/10/31 04:36:20;;;;;;;8.35;5.38;;;19.10;72.30;;;;;;5069448;28;20028;-77
2021/10/31 04:38:49;;;;;;;7.82;4.88;;;19.10;72.30;;;;;;5056527;28;20044;-77
2021/10/31 04:41:15;;;;;;;9.68;5.00;;;19.10;72.30;;;;;;5066435;28;20365;-76
2021/10/31 04:43:40;;;;;;;9.43;5.15;;;19.10;72.30;;;;;;5063461;28;20021;-76
2021/10/31 04:46:06;;;;;;;7.72;4.88;;;19.10;72.30;;;;;;5058691;28;20103;-76
2021/10/31 04:48:32;;;;;;;7.38;4.55;;;19.10;72.30;;;;;;5064480;28;20040;-76
2021/10/31 04:50:58;;;;;;;8.00;4.88;;;19.10;72.30;;;;;;5061659;28;20017;-76
2021/10/31 04:53:23;;;;;;;7.95;4.68;;;19.10;72.40;;;;;;5044936;28;20091;-76
2021/10/31 04:55:49;;;;;;;8.15;4.68;;;19.10;72.30;;;;;;5064143;28;20025;-76
2021/10/31 04:58:15;;;;;;;8.23;4.65;;;19.10;72.40;;;;;;5065124;28;20013;-76
2021/10/31 05:00:40;;;;;;;6.35;4.28;;;19.10;72.30;;;;;;5064458;28;20021;-76
2021/10/31 05:03:07;;;;;;;7.57;4.80;;;19.10;72.40;;;;;;5066410;28;20489;-76
2021/10/31 05:05:33;;;;;;;6.22;4.30;;;19.10;72.40;;;;;;5057539;28;20541;-76
2021/10/31 05:07:59;;;;;;;7.85;4.47;;;19.10;72.40;;;;;;5049533;28;20099;-76
2021/10/31 05:10:25;;;;;;;9.35;4.68;;;19.10;72.40;;;;;;5060485;28;20099;-76
2021/10/31 05:12:51;;;;;;;6.18;4.13;;;19.10;72.40;;;;;;5063573;28;20025;-76
2021/10/31 05:15:17;;;;;;;6.85;4.25;;;19.10;72.50;;;;;;5066159;28;20103;-76
2021/10/31 05:17:43;;;;;;;8.38;4.28;;;19.10;72.40;;;;;;5045991;28;20385;-76
2021/10/31 05:20:09;;;;;;;8.13;4.47;;;19.10;72.50;;;;;;5062462;28;20021;-76
2021/10/31 05:22:38;;;;;;;7.97;4.60;;;19.10;72.50;;;;;;5062282;28;20028;-76
2021/10/31 05:25:08;;;;;;;7.60;4.55;;;19.10;72.50;;;;;;5047188;28;20031;-76
2021/10/31 05:27:34;;;;;;;5.53;4.22;;;19.10;72.50;;;;;;5047547;28;20028;-76
2021/10/31 05:29:59;;;;;;;6.75;4.18;;;19.10;72.50;;;;;;5060309;28;20021;-76
2021/10/31 05:32:31;;;;;;;5.90;4.05;;;19.10;72.50;;;;;;5060894;28;20016;-76
2021/10/31 05:34:57;;;;;;;5.50;3.85;;;19.10;72.50;;;;;;5064158;28;20023;-76
2021/10/31 05:37:23;;;;;;;5.60;3.92;;;19.10;72.50;;;;;;5059683;28;20021;-76
2021/10/31 05:39:48;;;;;;;5.38;3.50;;;19.10;72.60;;;;;;5056901;28;20021;-76
2021/10/31 05:42:14;;;;;;;6.32;4.00;;;19.10;72.60;;;;;;5065773;28;20433;-76
2021/10/31 05:44:40;;;;;;;6.30;4.22;;;19.10;72.50;;;;;;5053034;28;20025;-76
2021/10/31 05:47:05;;;;;;;5.97;4.05;;;19.10;72.60;;;;;;5064427;28;20056;-76
2021/10/31 05:49:32;;;;;;;6.13;4.05;;;19.10;72.60;;;;;;5041533;28;20040;-76
2021/10/31 05:51:58;;;;;;;6.40;3.88;;;19.10;72.60;;;;;;5052158;28;20024;-76
2021/10/31 05:54:23;;;;;;;5.45;3.60;;;19.10;72.60;;;;;;5056236;28;20017;-76
2021/10/31 05:56:49;;;;;;;5.65;3.78;;;19.10;72.60;;;;;;5053915;28;20025;-76
2021/10/31 05:59:14;;;;;;;5.15;3.78;;;19.10;72.70;;;;;;5051583;28;20032;-76
2021/10/31 06:01:40;;;;;;;5.85;3.83;;;19.10;72.70;;;;;;5051337;28;20029;-76
2021/10/31 06:04:06;;;;;;;5.18;3.85;;;19.10;72.60;;;;;;5050584;28;20029;-75
2021/10/31 06:06:33;;;;;;;5.80;3.60;;;19.10;72.60;;;;;;5051229;28;20048;-75
2021/10/31 06:08:59;;;;;;;6.20;3.70;;;19.10;72.70;;;;;;5051539;28;20070;-75
2021/10/31 06:11:25;;;;;;;7.07;3.97;;;19.10;72.70;;;;;;5052820;28;20029;-75
2021/10/31 06:13:51;;;;;;;5.78;3.60;;;19.10;72.70;;;;;;5051337;28;20049;-75
2021/10/31 06:16:17;;;;;;;6.05;3.78;;;19.10;72.70;;;;;;5034968;28;20021;-76
2021/10/31 06:18:43;;;;;;;5.45;3.33;;;19.10;72.70;;;;;;5034981;28;20059;-76
2021/10/31 06:21:08;;;;;;;3.83;3.00;;;19.10;72.70;;;;;;5051026;28;20371;-76
2021/10/31 06:23:35;;;;;;;3.78;2.90;;;19.10;72.70;;;;;;5051403;28;20028;-76
2021/10/31 06:26:02;;;;;;;6.50;3.55;;;19.10;72.70;;;;;;5051308;28;20024;-76
2021/10/31 06:28:28;;;;;;;4.97;3.40;;;19.10;72.70;;;;;;5051121;28;20025;-76
2021/10/31 06:30:53;;;;;;;4.57;3.47;;;19.10;72.70;;;;;;5052336;28;20036;-76
2021/10/31 06:33:19;;;;;;;6.03;3.25;;;19.10;72.80;;;;;;5051316;28;20145;-76
2021/10/31 06:35:45;;;;;;;4.75;3.65;;;19.10;72.70;;;;;;5050326;28;20024;-76
2021/10/31 06:38:11;;;;;;;4.90;3.28;;;19.10;72.80;;;;;;5052505;28;20469;-76
2021/10/31 06:40:36;;;;;;;5.95;3.38;;;19.10;72.80;;;;;;5034683;28;20079;-76
2021/10/31 06:43:02;;;;;;;5.80;3.25;;;19.10;72.80;;;;;;5051920;28;20036;-76
2021/10/31 06:45:28;;;;;;;5.43;3.30;;;19.10;72.80;;;;;;5052406;28;20028;-76
2021/10/31 06:47:53;;;;;;;5.05;3.10;;;19.10;72.80;;;;;;5051050;28;20067;-76
2021/10/31 06:50:19;;;;;;;4.90;3.47;;;19.10;72.90;;;;;;5052204;28;20052;-76
2021/10/31 06:52:45;;;;;;;4.50;3.17;;;19.10;72.80;;;;;;5051020;28;20025;-76
2021/10/31 06:55:11;;;;;;;5.80;3.38;;;19.10;72.90;;;;;;5051034;28;20013;-76
2021/10/31 06:57:40;;;;;;;4.10;3.03;;;19.10;72.90;;;;;;5052118;28;20028;-76
2021/10/31 07:00:09;;;;;;;3.88;2.83;;;19.10;72.90;;;;;;5052023;28;20020;-76
2021/10/31 07:02:35;;;;;;;4.32;3.00;;;19.10;72.90;;;;;;5052337;28;20028;-76
2021/10/31 07:05:00;;;;;;;5.00;3.10;;;19.10;72.90;;;;;;5052001;28;20029;-76
2021/10/31 07:07:26;;;;;;;4.75;3.35;;;19.10;72.90;;;;;;5050721;28;20045;-76
2021/10/31 07:09:52;;;;;;;4.80;3.25;;;19.10;72.90;;;;;;5050761;28;20075;-76
2021/10/31 07:12:18;;;;;;;4.70;3.10;;;19.10;72.90;;;;;;5051700;28;20053;-76
2021/10/31 07:14:43;;;;;;;5.07;2.83;;;19.10;74.00;;;;;;5052132;28;20099;-76
2021/10/31 07:17:09;;;;;;;6.00;3.30;;;19.10;72.90;;;;;;5050740;28;20028;-76
2021/10/31 07:19:35;;;;;;;4.65;2.88;;;19.10;72.90;;;;;;5051939;28;20024;-76
2021/10/31 07:22:00;;;;;;;3.92;3.10;;;19.10;72.90;;;;;;5051879;28;20032;-76
2021/10/31 07:24:26;;;;;;;3.65;2.85;;;19.10;72.90;;;;;;5034224;28;20036;-76
2021/10/31 07:26:52;;;;;;;6.70;3.78;;;19.10;72.90;;;;;;5049121;28;20025;-76
2021/10/31 07:29:17;;;;;;;3.58;2.95;;;19.10;72.90;;;;;;5049849;28;20429;-76
2021/10/31 07:31:45;;;;;;;4.30;2.95;;;19.10;72.90;;;;;;5051839;28;20033;-76
2021/10/31 07:34:12;;;;;;;4.80;3.20;;;19.10;72.90;;;;;;5050821;28;20025;-76
2021/10/31 07:36:39;;;;;;;4.05;3.00;;;19.10;73.00;;;;;;5051986;28;20017;-76
2021/10/31 07:39:05;;;;;;;3.55;2.60;;;19.10;72.90;;;;;;5050422;28;20117;-76
2021/10/31 07:41:30;;;;;;;5.32;3.10;;;19.10;72.90;;;;;;5050435;28;20104;-76
2021/10/31 07:43:56;;;;;;;3.55;3.00;;;19.10;73.00;;;;;;5051644;28;20099;-76
2021/10/31 07:46:22;;;;;;;4.35;2.85;;;19.10;73.00;;;;;;5050593;28;20158;-76
2021/10/31 07:48:47;;;;;;;4.88;3.05;;;19.10;73.00;;;;;;5052753;28;20440;-76
2021/10/31 07:51:13;;;;;;;3.17;2.70;;;19.10;73.00;;;;;;5054185;28;20557;-76
2021/10/31 07:53:42;;;;;;;3.65;2.60;;;19.10;73.00;;;;;;5054206;28;20402;-76
2021/10/31 07:56:09;;;;;;;4.63;2.90;;;19.10;73.00;;;;;;5053819;28;20493;-76
2021/10/31 07:58:36;;;;;;;3.95;2.92;;;19.10;73.00;;;;;;5054348;28;20096;-76
2021/10/31 08:01:02;;;;;;;4.38;3.25;;;19.10;73.00;;;;;;5054122;28;20029;-76
2021/10/31 08:03:27;;;;;;;3.42;2.90;;;19.10;73.00;;;;;;5055486;28;20028;-76
2021/10/31 08:05:53;;;;;;;4.25;2.50;;;19.10;73.00;;;;;;5053838;28;20033;-76
2021/10/31 08:08:21;;;;;;;4.00;2.72;;;19.10;73.10;;;;;;5053689;28;20413;-76
2021/10/31 08:10:47;;;;;;;3.75;2.60;;;19.10;73.00;;;;;;5053733;28;20040;-76
2021/10/31 08:13:23;;;;;;;4.60;2.78;;;19.10;73.10;;;;;;5053896;28;20430;-76
2021/10/31 08:15:49;;;;;;;4.25;2.70;;;19.10;73.00;;;;;;5037762;28;20021;-77
2021/10/31 08:18:15;;;;;;;3.70;2.60;;;19.10;73.10;;;;;;5054973;28;20469;-76
2021/10/31 08:20:41;;;;;;;3.33;2.55;;;19.10;73.10;;;;;;5053772;28;20366;-76
2021/10/31 08:23:08;;;;;;;5.00;2.85;;;19.10;73.10;;;;;;5042071;28;20025;-76
2021/10/31 08:25:33;;;;;;;4.60;2.78;;;19.10;73.10;;;;;;5033552;28;20025;-76
2021/10/31 08:28:00;;;;;;;3.25;2.60;;;19.10;73.10;;;;;;5034843;28;20080;-76
2021/10/31 08:30:32;;;;;;;3.10;2.42;;;19.10;73.20;;;;;;5047491;28;20058;-76
2021/10/31 08:33:05;;;;;;;5.85;2.45;;;19.10;73.10;;;;;;5054805;28;20045;-76
2021/10/31 08:35:31;;;;;;;4.00;2.50;;;19.10;73.10;;;;;;5053751;28;20095;-76
2021/10/31 08:37:56;;;;;;;2.97;2.25;;;19.10;73.20;;;;;;5054300;28;20492;-77
2021/10/31 08:40:22;;;;;;;3.20;2.30;;;19.10;73.10;;;;;;5054653;28;20032;-76
2021/10/31 08:42:47;;;;;;;3.72;2.10;;;19.10;73.20;;;;;;5053405;28;20021;-76
2021/10/31 08:45:13;;;;;;;4.72;2.70;;;19.10;73.20;;;;;;5053194;28;20048;-76
2021/10/31 08:47:39;;;;;;;3.80;2.50;;;19.10;73.20;;;;;;5053347;28;20048;-76
2021/10/31 08:50:05;;;;;;;2.45;2.22;;;19.10;73.20;;;;;;5053167;28;20033;-76
2021/10/31 08:52:31;;;;;;;3.80;2.55;;;19.10;73.20;;;;;;5054018;28;20118;-76
2021/10/31 08:54:57;;;;;;;4.63;2.60;;;19.10;73.20;;;;;;5053026;28;20100;-76
2021/10/31 08:57:23;;;;;;;3.72;2.50;;;19.10;73.20;;;;;;5048880;28;20025;-75
2021/10/31 08:59:48;;;;;;;3.15;2.35;;;19.10;73.20;;;;;;5054150;28;20059;-76
2021/10/31 09:02:15;;;;;;;5.25;2.53;;;19.10;73.20;;;;;;5038431;28;20174;-74
2021/10/31 09:04:40;;;;;;;3.80;2.50;;;19.10;73.20;;;;;;5051552;28;20021;-74
2021/10/31 09:07:14;;;;;;;3.47;2.40;;;19.10;73.20;;;;;;5035650;28;20118;-74
2021/10/31 09:09:40;;;;;;;3.60;2.40;;;19.10;73.20;;;;;;5042310;28;20104;-74
2021/10/31 09:12:06;;;;;;;3.33;2.22;;;19.10;73.30;;;;;;5039216;28;20029;-74
2021/10/31 09:14:33;;;;;;;4.90;2.45;;;19.10;73.20;;;;;;5037484;28;20026;-76
2021/10/31 09:16:58;;;;;;;4.07;2.58;;;19.10;73.30;;;;;;5037884;28;20037;-74
2021/10/31 09:19:24;;;;;;;4.07;2.22;;;19.10;73.20;;;;;;5037684;28;20143;-77
2021/10/31 09:21:49;;;;;;;3.42;2.30;;;19.10;73.20;;;;;;5035731;28;20154;-72
2021/10/31 09:24:15;;;;;;;3.50;2.17;;;19.10;73.20;;;;;;5038573;28;20495;-72
2021/10/31 09:26:41;;;;;;;4.63;2.47;;;19.10;73.30;;;;;;5035513;28;20018;-74
2021/10/31 09:29:07;;;;;;;2.97;2.20;;;19.10;73.30;;;;;;5061839;28;20525;-74
2021/10/31 09:31:33;;;;;;;3.58;2.50;;;19.10;73.30;;;;;;5043724;28;20021;-72
2021/10/31 09:33:59;;;;;;;3.40;2.05;;;19.10;73.30;;;;;;5037427;28;20018;-72
2021/10/31 09:36:25;;;;;;;3.63;2.47;;;19.10;73.30;;;;;;5036079;28;20020;-73
2021/10/31 09:38:53;;;;;;;3.17;2.30;;;19.10;73.30;;;;;;5048090;28;20040;-73
2021/10/31 09:41:19;;;;;;;2.83;1.95;;;19.10;73.30;;;;;;5044511;28;20022;-73
2021/10/31 09:43:49;;;;;;;6.30;2.10;;;19.10;73.30;;;;;;5057610;28;20104;-77
2021/10/31 09:46:14;;;;;;;5.00;2.10;;;19.10;72.80;;;;;;5063685;28;20509;-76
2021/10/31 09:48:40;;;;;;;9.52;2.38;;;19.00;72.40;;;;;;5064036;28;20023;-76
2021/10/31 09:51:05;;;;;;;9.63;2.35;;;18.90;72.10;;;;;;5063103;28;20393;-76
2021/10/31 09:53:31;;;;;;;8.88;1.90;;;18.80;72.00;;;;;;5063817;28;20058;-71
2021/10/31 09:55:57;;;;;;;11.48;2.20;;;18.70;71.80;;;;;;5064972;28;20051;-72
2021/10/31 09:58:32;;;;;;;9.18;2.05;;;18.60;71.50;;;;;;5065036;28;20013;-72
2021/10/31 10:00:58;;;;;;;8.68;1.95;;;18.50;71.60;;;;;;5052173;28;20028;-75
2021/10/31 10:03:35;;;;;;;7.88;1.85;;;18.50;71.70;;;;;;5042363;28;20112;-71
2021/10/31 10:06:15;;;;;;;8.77;2.53;;;18.40;71.40;;;;;;5050770;28;20100;-73
2021/10/31 10:09:05;;;;;;;9.75;2.05;;;18.40;71.30;;;;;;5072815;28;20064;-71
2021/10/31 10:11:36;;;;;;;9.82;2.22;;;18.30;71.10;;;;;;5044391;28;20482;-72
2021/10/31 10:14:23;;;;;;;13.52;2.38;;;18.20;71.00;;;;;;5044894;28;20014;-72
2021/10/31 10:16:56;;;;;;;11.57;2.72;;;18.20;70.90;;;;;;5045765;28;20090;-73
2021/10/31 10:19:25;;;;;;;9.55;2.22;;;18.10;71.00;;;;;;5051743;28;20021;-73
2021/10/31 10:22:14;;;;;;;11.52;2.50;;;18.10;70.80;;;;;;5057483;28;20036;-73
2021/10/31 10:25:01;;;;;;;10.10;1.73;;;18.10;70.40;;;;;;5050702;28;20028;-74
2021/10/31 10:27:30;;;;;;;9.80;2.20;;;18.00;70.60;;;;;;5053189;28;20455;-74
2021/10/31 10:29:56;;;;;;;11.43;1.98;;;18.00;70.50;;;;;;5063081;28;20119;-75
2021/10/31 10:32:23;;;;;;;10.48;1.80;;;18.00;70.30;;;;;;5066994;28;20025;-73
2021/10/31 10:34:51;;;;;;;9.02;1.70;;;17.90;70.20;;;;;;5049371;28;20077;-76
2021/10/31 10:37:31;;;;;;;8.55;1.70;;;17.90;70.20;;;;;;5051822;28;20497;-75
2021/10/31 10:40:04;;;;;;;7.43;1.75;;;17.90;70.00;;;;;;5031672;28;20021;-73
2021/10/31 10:42:44;;;;;;;9.05;2.10;;;17.90;69.60;;;;;;5040636;28;20071;-75
2021/10/31 10:45:12;;;;;;;9.85;1.83;;;17.80;69.70;;;;;;5068733;28;20043;-70
2021/10/31 10:47:42;;;;;;;7.72;1.80;;;17.70;70.00;;;;;;5054117;28;20389;-75
2021/10/31 10:50:17;;;;;;;8.68;2.03;;;17.80;70.50;;;;;;5046760;28;20021;-74
2021/10/31 10:52:43;;;;;;;6.70;2.20;;;17.90;70.60;;;;;;5051438;28;20040;-73
2021/10/31 10:55:22;;;;;;;7.60;2.15;;;18.00;70.60;;;;;;5068119;28;20021;-73
2021/10/31 10:57:49;;;;;;;9.38;2.30;;;18.10;70.50;;;;;;5055808;28;20497;-73
2021/10/31 11:00:20;;;;;;;8.18;2.58;;;18.10;70.50;;;;;;5063038;28;20056;-72
2021/10/31 11:03:07;;;;;;;8.25;2.20;;;18.20;70.50;;;;;;5045536;28;20120;-73
2021/10/31 11:05:41;;;;;;;10.80;2.53;;;18.20;70.60;;;;;;5061979;28;20037;-73
2021/10/31 11:08:25;;;;;;;9.07;2.25;;;18.30;70.50;;;;;;5055314;28;20056;-71
2021/10/31 11:10:57;;;;;;;7.50;1.95;;;18.30;70.50;;;;;;5039073;28;20025;-76
2021/10/31 11:13:28;;;;;;;6.93;2.33;;;18.30;70.60;;;;;;5060180;28;20090;-73
2021/10/31 11:15:54;;;;;;;9.45;2.20;;;18.30;70.60;;;;;;5063057;28;20029;-72
2021/10/31 11:18:19;;;;;;;8.75;2.28;;;18.30;70.60;;;;;;5044714;28;20035;-73
2021/10/31 11:20:46;;;;;;;7.38;2.20;;;18.40;70.60;;;;;;5060292;28;20017;-72
2021/10/31 11:23:15;;;;;;;10.32;2.17;;;18.40;70.60;;;;;;5061621;28;20490;-74
2021/10/31 11:25:42;;;;;;;7.28;1.92;;;18.40;70.60;;;;;;5063080;28;20017;-72
2021/10/31 11:28:12;;;;;;;9.45;2.58;;;18.40;70.60;;;;;;5067530;28;20013;-73
2021/10/31 11:30:38;;;;;;;7.55;2.28;;;18.40;70.60;;;;;;5058749;28;20028;-74
2021/10/31 11:33:04;;;;;;;3.72;1.70;;;18.40;70.70;;;;;;5065927;28;20024;-73
2021/10/31 11:35:30;;;;;;;8.75;2.08;;;18.40;70.60;;;;;;5045940;28;20121;-72
2021/10/31 11:38:04;;;;;;;8.45;1.70;;;18.40;70.70;;;;;;5052693;28;20485;-73
2021/10/31 11:40:33;;;;;;;7.40;2.08;;;18.40;70.40;;;;;;5058987;28;20010;-73
2021/10/31 11:42:58;;;;;;;4.97;1.63;;;18.40;70.30;;;;;;5055388;28;20490;-71
2021/10/31 11:45:26;;;;;;;10.98;2.78;;;18.30;70.30;;;;;;5053779;28;20104;-71
2021/10/31 11:48:09;;;;;;;8.40;1.90;;;18.30;70.30;;;;;;5053432;28;20029;-71
2021/10/31 11:50:35;;;;;;;10.45;2.35;;;18.30;70.10;;;;;;5062325;28;20009;-73
2021/10/31 11:53:00;;;;;;;7.68;1.60;;;18.30;70.40;;;;;;5059339;28;20035;-73
2021/10/31 11:55:29;;;;;;;4.55;1.70;;;18.20;70.40;;;;;;5066126;28;20017;-73
2021/10/31 11:58:05;;;;;;;8.68;1.92;;;18.30;70.60;;;;;;5063165;28;20032;-73
2021/10/31 12:00:34;;;;;;;6.53;1.60;;;18.30;70.60;;;;;;5067830;28;20023;-73
2021/10/31 12:03:03;;;;;;;6.13;2.00;;;18.30;70.60;;;;;;5061698;28;20021;-73
2021/10/31 12:05:37;;;;;;;6.40;1.80;;;18.30;70.50;;;;;;5069204;28;20551;-73
2021/10/31 12:08:06;;;;;;;8.73;1.50;;;18.30;70.50;;;;;;5060314;28;20435;-73
2021/10/31 12:10:44;;;;;;;5.18;1.60;;;18.40;70.60;;;;;;5047428;28;20100;-73
2021/10/31 12:13:20;;;;;;;4.40;1.40;;;18.40;70.60;;;;;;5053648;28;20080;-72
2021/10/31 12:16:04;;;;;;;6.75;1.70;;;18.40;70.70;;;;;;5049473;28;20051;-71
2021/10/31 12:18:50;;;;;;;7.03;1.98;;;18.40;70.60;;;;;;5046431;28;20022;-71
2021/10/31 12:21:29;;;;;;;6.43;1.98;;;18.40;70.60;;;;;;5083478;28;20040;-70
2021/10/31 12:24:02;;;;;;;5.13;1.70;;;18.40;70.60;;;;;;5049925;28;20029;-71
2021/10/31 12:26:38;;;;;;;5.82;1.75;;;18.40;70.70;;;;;;5042498;28;20025;-72
2021/10/31 12:29:17;;;;;;;4.28;1.55;;;18.40;70.70;;;;;;5068720;28;20063;-72
2021/10/31 12:31:58;;;;;;;7.25;1.73;;;18.40;70.70;;;;;;5063073;28;20038;-70
2021/10/31 12:34:27;;;;;;;5.03;1.67;;;18.40;70.70;;;;;;5050914;28;20041;-70
2021/10/31 12:36:54;;;;;;;6.43;1.77;;;18.40;70.80;;;;;;5053637;28;20014;-71
2021/10/31 12:39:30;;;;;;;9.52;1.83;;;18.40;70.70;;;;;;5042508;28;20500;-74
2021/10/31 12:42:13;;;;;;;8.90;2.03;;;18.40;70.70;;;;;;5063989;28;20120;-76
2021/10/31 12:44:42;;;;;;;10.00;2.10;;;18.50;70.70;;;;;;5067663;28;20033;-72
2021/10/31 12:47:10;;;;;;;6.88;2.10;;;18.40;70.70;;;;;;5042000;28;20510;-74
2021/10/31 12:49:36;;;;;;;8.77;2.13;;;18.40;70.80;;;;;;5037083;28;20026;-73
2021/10/31 12:52:03;;;;;;;13.70;2.83;;;18.50;70.80;;;;;;5029330;28;20078;-72